createdAt,value
2023-01-09T00:00:38.064Z,98957.02
2023-01-09T00:03:05.009Z,98954.27
2023-01-09T00:05:32.063Z,98948.25
2023-01-09T00:07:59.040Z,98943.80
2023-01-09T00:10:26.107Z,98934.75
2023-01-09T00:12:53.097Z,98937.86
2023-01-09T00:15:20.014Z,98935.72
2023-01-09T00:17:48.003Z,98924.53
2023-01-09T00:20:14.829Z,98914.50
2023-01-09T00:22:41.623Z,98907.23
2023-01-09T00:25:09.371Z,98897.20
2023-01-09T00:27:36.321Z,98896.55
2023-01-09T00:30:03.584Z,98900.11
2023-01-09T00:32:30.413Z,98897.10
2023-01-09T00:34:57.575Z,98892.38
2023-01-09T00:37:24.519Z,98894.09
2023-01-09T00:39:51.503Z,98891.39
2023-01-09T00:42:21.901Z,98892.92
2023-01-09T00:44:53.953Z,98886.65
2023-01-09T00:47:29.209Z,98882.90
2023-01-09T00:50:05.796Z,98884.61
2023-01-09T00:52:34.388Z,98883.23
2023-01-09T00:55:01.307Z,98880.70
2023-01-09T00:57:28.426Z,98883.85
2023-01-09T00:59:55.506Z,98880.58
2023-01-09T01:02:22.688Z,98875.94
2023-01-09T01:05:08.191Z,98877.98
2023-01-09T01:07:42.679Z,98876.45
2023-01-09T01:10:20.179Z,98876.20
2023-01-09T01:12:48.772Z,98878.55
2023-01-09T01:15:16.618Z,98879.33
2023-01-09T01:17:43.803Z,98874.75
2023-01-09T01:20:13.817Z,98873.39
2023-01-09T01:22:42.410Z,98868.64
2023-01-09T01:25:10.768Z,98868.58
2023-01-09T01:27:38.038Z,98860.55
2023-01-09T01:30:06.227Z,98863.73
2023-01-09T01:32:33.269Z,98863.86
2023-01-09T01:35:00.331Z,98863.42
2023-01-09T01:37:27.813Z,98866.09
2023-01-09T01:39:54.675Z,98863.75
2023-01-09T01:42:21.760Z,98860.36
2023-01-09T01:45:12.912Z,98860.05
2023-01-09T01:47:48.311Z,98857.12
2023-01-09T01:50:39.907Z,98858.48
2023-01-09T01:53:16.419Z,98856.20
2023-01-09T01:56:11.649Z,98853.02
2023-01-09T01:58:50.142Z,98847.27
2023-01-09T02:01:17.390Z,98850.80
2023-01-09T02:03:44.954Z,98845.52
2023-01-09T02:06:13.805Z,98843.49
2023-01-09T02:08:41.000Z,98845.66
2023-01-09T02:11:08.076Z,98840.06
2023-01-09T02:13:38.578Z,98835.96
2023-01-09T02:16:29.024Z,98834.70
2023-01-09T02:19:26.442Z,98834.70
2023-01-09T02:22:12.849Z,98832.27
2023-01-09T02:25:09.660Z,98829.60
2023-01-09T02:27:45.514Z,98830.05
2023-01-09T02:30:26.460Z,98827.58
2023-01-09T02:33:16.788Z,98824.66
2023-01-09T02:36:12.190Z,98821.42
2023-01-09T02:38:38.950Z,98815.06
2023-01-09T02:41:19.920Z,98815.05
2023-01-09T02:43:46.845Z,98814.33
2023-01-09T02:46:20.164Z,98811.78
2023-01-09T02:48:50.879Z,98811.27
2023-01-09T02:51:36.829Z,98811.79
2023-01-09T02:54:21.231Z,98806.52
2023-01-09T02:57:06.027Z,98805.34
2023-01-09T02:59:41.762Z,98807.61
2023-01-09T03:02:29.566Z,98804.05
2023-01-09T03:05:11.725Z,98803.20
2023-01-09T03:07:42.009Z,98797.48
2023-01-09T03:10:23.316Z,98799.44
2023-01-09T03:12:54.027Z,98796.84
2023-01-09T03:15:28.830Z,98793.51
2023-01-09T03:17:57.061Z,98790.64
2023-01-09T03:20:27.619Z,98792.09
2023-01-09T03:22:55.252Z,98785.75
2023-01-09T03:25:22.440Z,98787.95
2023-01-09T03:27:55.112Z,98782.89
2023-01-09T03:30:22.525Z,98785.77
2023-01-09T03:32:49.393Z,98779.84
2023-01-09T03:35:16.519Z,98778.09
2023-01-09T03:37:43.566Z,98777.24
2023-01-09T03:40:11.035Z,98772.00
2023-01-09T03:42:38.070Z,98768.35
2023-01-09T03:45:06.830Z,98769.79
2023-01-09T03:48:24.527Z,98773.58
2023-01-09T03:50:52.698Z,98767.55
2023-01-09T03:53:20.608Z,98767.23
2023-01-09T03:55:49.692Z,98765.23
2023-01-09T03:58:17.348Z,98762.44
2023-01-09T04:00:49.092Z,98759.45
2023-01-09T04:03:18.177Z,98756.80
2023-01-09T04:05:46.607Z,98754.79
2023-01-09T04:08:14.076Z,98755.78
2023-01-09T04:10:43.806Z,98756.20
2023-01-09T04:13:10.968Z,98758.67
2023-01-09T04:15:37.896Z,98760.34
2023-01-09T04:18:05.301Z,98765.63
2023-01-09T04:20:32.811Z,98762.22
2023-01-09T04:22:59.849Z,98755.56
2023-01-09T04:25:27.330Z,98752.63
2023-01-09T04:27:54.335Z,98748.48
2023-01-09T04:30:21.312Z,98752.92
2023-01-09T04:32:48.140Z,98753.40
2023-01-09T04:35:15.287Z,98756.00
2023-01-09T04:37:42.562Z,98760.99
2023-01-09T04:40:10.531Z,98764.31
2023-01-09T04:42:38.654Z,98758.20
2023-01-09T04:45:06.613Z,98761.20
2023-01-09T04:47:33.885Z,98757.88
2023-01-09T04:50:00.960Z,98757.75
2023-01-09T04:52:28.178Z,98763.83
2023-01-09T04:54:55.151Z,98769.02
2023-01-09T04:57:22.186Z,98767.14
2023-01-09T04:59:49.121Z,98770.02
2023-01-09T05:02:16.243Z,98771.13
2023-01-09T05:04:43.066Z,98777.98
2023-01-09T05:07:10.017Z,98783.41
2023-01-09T05:09:37.335Z,98784.90
2023-01-09T05:12:04.741Z,98788.58
2023-01-09T05:14:31.567Z,98791.98
2023-01-09T05:16:58.542Z,98789.55
2023-01-09T05:19:25.537Z,98792.44
2023-01-09T05:21:52.410Z,98791.92
2023-01-09T05:24:19.511Z,98789.98
2023-01-09T05:26:46.861Z,98792.77
2023-01-09T05:29:13.900Z,98798.68
2023-01-09T05:31:40.798Z,98803.86
2023-01-09T05:34:07.650Z,98806.96
2023-01-09T05:36:34.784Z,98806.92
2023-01-09T05:39:02.722Z,98810.40
2023-01-09T05:41:29.578Z,98812.34
2023-01-09T05:43:56.637Z,98815.30
2023-01-09T05:46:23.669Z,98820.86
2023-01-09T05:48:50.554Z,98826.98
2023-01-09T05:51:17.555Z,98834.52
2023-01-09T05:53:44.772Z,98833.96
2023-01-09T05:56:12.096Z,98840.04
2023-01-09T05:58:39.167Z,98848.08
2023-01-09T06:01:06.570Z,98849.77
2023-01-09T06:03:33.805Z,98850.05
2023-01-09T06:06:00.727Z,98849.90
2023-01-09T06:08:27.475Z,98852.08
2023-01-09T06:10:54.320Z,98849.73
2023-01-09T06:13:21.312Z,98843.01
2023-01-09T06:15:49.263Z,98842.15
2023-01-09T06:18:16.302Z,98844.30
2023-01-09T06:20:45.892Z,98845.55
2023-01-09T06:23:13.770Z,98848.91
2023-01-09T06:25:41.571Z,98861.92
2023-01-09T06:28:08.584Z,98866.91
2023-01-09T06:30:35.461Z,98862.60
2023-01-09T06:33:02.295Z,98861.56
2023-01-09T06:35:29.362Z,98868.75
2023-01-09T06:37:56.945Z,98879.20
2023-01-09T06:40:23.843Z,98884.41
2023-01-09T06:42:50.835Z,98881.56
2023-01-09T06:45:18.054Z,98885.29
2023-01-09T06:47:45.071Z,98888.75
2023-01-09T06:50:12.722Z,98895.25
2023-01-09T06:52:39.976Z,98895.55
2023-01-09T06:55:08.171Z,98901.08
2023-01-09T06:57:35.437Z,98908.93
2023-01-09T07:00:03.027Z,98905.17
2023-01-09T07:02:30.008Z,98911.34
2023-01-09T07:04:57.071Z,98916.17
2023-01-09T07:07:24.245Z,98920.02
2023-01-09T07:09:51.426Z,98925.84
2023-01-09T07:12:18.498Z,98933.73
2023-01-09T07:14:45.398Z,98936.54
2023-01-09T07:17:13.589Z,98941.11
2023-01-09T07:19:41.054Z,98942.02
2023-01-09T07:22:08.261Z,98946.27
2023-01-09T07:24:35.287Z,98951.91
2023-01-09T07:27:02.534Z,98954.42
2023-01-09T07:29:29.863Z,98958.98
2023-01-09T07:31:57.015Z,98962.17
2023-01-09T07:34:24.090Z,98964.40
2023-01-09T07:36:51.253Z,98970.27
2023-01-09T07:39:18.413Z,98976.48
2023-01-09T07:41:45.527Z,98983.43
2023-01-09T07:44:12.482Z,98985.55
2023-01-09T07:46:39.883Z,98984.66
2023-01-09T07:49:07.393Z,98984.36
2023-01-09T07:51:34.781Z,98984.63
2023-01-09T07:54:01.680Z,98985.39
2023-01-09T07:56:28.647Z,98988.75
2023-01-09T07:58:55.839Z,98989.02
2023-01-09T08:01:23.013Z,98996.55
2023-01-09T08:03:50.087Z,99000.75
2023-01-09T08:06:17.090Z,99012.11
2023-01-09T08:08:44.128Z,99015.95
2023-01-09T08:11:11.352Z,99019.42
2023-01-09T08:13:38.464Z,99023.29
2023-01-09T08:16:06.005Z,99025.18
2023-01-09T08:18:33.163Z,99029.08
2023-01-09T08:21:00.328Z,99027.75
2023-01-09T08:23:27.545Z,99035.27
2023-01-09T08:25:54.615Z,99036.61
2023-01-09T08:28:21.762Z,99035.97
2023-01-09T08:30:49.013Z,99034.05
2023-01-09T08:33:16.066Z,99039.04
2023-01-09T08:35:46.351Z,99042.09
2023-01-09T08:38:13.225Z,99033.45
2023-01-09T08:40:40.069Z,99038.55
2023-01-09T08:43:25.548Z,99038.05
2023-01-09T08:46:10.656Z,99042.92
2023-01-09T08:48:37.718Z,99045.80
2023-01-09T08:51:04.449Z,99042.58
2023-01-09T08:53:31.480Z,99038.84
2023-01-09T08:55:59.115Z,99047.01
2023-01-09T08:58:26.018Z,99053.05
2023-01-09T09:00:52.694Z,99053.52
2023-01-09T09:03:19.677Z,99055.73
2023-01-09T09:05:46.958Z,99061.27
2023-01-09T09:08:13.857Z,99057.95
2023-01-09T09:10:40.643Z,99060.55
2023-01-09T09:13:07.428Z,99060.24
2023-01-09T09:15:34.551Z,99058.86
2023-01-09T09:18:03.149Z,99060.12
2023-01-09T09:20:32.042Z,99055.95
2023-01-09T09:22:59.101Z,99053.59
2023-01-09T09:25:26.016Z,99052.74
2023-01-09T09:27:52.773Z,99060.85
2023-01-09T09:30:20.196Z,99064.65
2023-01-09T09:32:47.247Z,99068.56
2023-01-09T09:35:14.278Z,99069.86
2023-01-09T09:37:41.806Z,99063.56
2023-01-09T09:40:18.889Z,99069.86
2023-01-09T09:43:22.502Z,99071.06
2023-01-09T09:46:12.358Z,99076.55
2023-01-09T09:48:48.421Z,99075.33
2023-01-09T09:51:38.311Z,99075.18
2023-01-09T09:54:13.701Z,99073.67
2023-01-09T09:57:02.136Z,99072.80
2023-01-09T09:59:33.448Z,99078.67
2023-01-09T10:02:15.569Z,99089.91
2023-01-09T10:04:48.942Z,99093.94
2023-01-09T10:07:22.641Z,99092.18
2023-01-09T10:09:54.199Z,99091.85
2023-01-09T10:12:30.811Z,99093.52
2023-01-09T10:14:59.625Z,99093.36
2023-01-09T10:17:38.574Z,99091.45
2023-01-09T10:20:35.103Z,99092.34
2023-01-09T10:23:13.524Z,99089.05
2023-01-09T10:25:45.887Z,99092.91
2023-01-09T10:28:47.562Z,99097.02
2023-01-09T10:31:46.644Z,99084.77
2023-01-09T10:34:19.048Z,99079.84
2023-01-09T10:36:59.059Z,99075.45
2023-01-09T10:39:52.478Z,99075.77
2023-01-09T10:42:30.583Z,99068.60
2023-01-09T10:45:14.032Z,99072.46
2023-01-09T10:47:40.878Z,99068.98
2023-01-09T10:50:27.004Z,99071.25
2023-01-09T10:52:56.158Z,99071.88
2023-01-09T10:55:30.343Z,99065.11
2023-01-09T10:58:02.873Z,99073.38
2023-01-09T11:00:29.874Z,99078.25
2023-01-09T11:02:56.650Z,99077.99
2023-01-09T11:05:27.894Z,99081.48
2023-01-09T11:08:04.017Z,99073.32
2023-01-09T11:10:51.169Z,99077.05
2023-01-09T11:13:27.071Z,99073.02
2023-01-09T11:16:06.000Z,99080.05
2023-01-09T11:18:39.571Z,99077.35
2023-01-09T11:21:29.608Z,99079.34
2023-01-09T11:23:56.853Z,99072.63
2023-01-09T11:26:26.772Z,99064.79
2023-01-09T11:29:10.087Z,99068.55
2023-01-09T11:31:37.878Z,99063.23
2023-01-09T11:34:04.663Z,99060.04
2023-01-09T11:36:31.727Z,99061.27
2023-01-09T11:39:00.879Z,99067.66
2023-01-09T11:41:32.051Z,99063.73
2023-01-09T11:44:00.311Z,99069.70
2023-01-09T11:46:34.706Z,99070.86
2023-01-09T11:49:04.278Z,99071.59
2023-01-09T11:51:34.121Z,99071.15
2023-01-09T11:54:15.993Z,99076.02
2023-01-09T11:56:43.259Z,99084.11
2023-01-09T11:59:15.255Z,99085.73
2023-01-09T12:01:53.348Z,99086.44
2023-01-09T12:04:25.106Z,99086.06
2023-01-09T12:06:51.732Z,99084.80
2023-01-09T12:09:32.914Z,99076.02
2023-01-09T12:12:29.942Z,99076.14
2023-01-09T12:15:13.750Z,99076.23
2023-01-09T12:18:08.178Z,99072.61
2023-01-09T12:21:09.117Z,99070.96
2023-01-09T12:23:54.560Z,99063.90
2023-01-09T12:26:53.151Z,99066.42
2023-01-09T12:29:44.803Z,99065.27
2023-01-09T12:32:23.769Z,99064.83
2023-01-09T12:35:00.848Z,99066.36
2023-01-09T12:37:43.688Z,99065.18
2023-01-09T12:40:16.604Z,99064.40
2023-01-09T12:43:04.610Z,99059.48
2023-01-09T12:45:49.677Z,99058.84
2023-01-09T12:48:28.320Z,99062.57
2023-01-09T12:51:01.170Z,99061.60
2023-01-09T12:53:34.714Z,99057.11
2023-01-09T12:56:04.978Z,99052.70
2023-01-09T12:58:40.849Z,99058.45
2023-01-09T13:01:23.226Z,99062.81
2023-01-09T13:03:58.856Z,99061.59
2023-01-09T13:06:28.720Z,99061.47
2023-01-09T13:09:20.393Z,99060.75
2023-01-09T13:11:56.956Z,99060.09
2023-01-09T13:14:50.683Z,99058.64
2023-01-09T13:17:26.385Z,99074.79
2023-01-09T13:19:54.063Z,99065.35
2023-01-09T13:22:24.900Z,99073.36
2023-01-09T13:25:15.537Z,99079.09
2023-01-09T13:27:46.760Z,99070.64
2023-01-09T13:30:13.401Z,99069.34
2023-01-09T13:32:54.005Z,99069.63
2023-01-09T13:35:20.862Z,99068.68
2023-01-09T13:37:53.350Z,99071.05
2023-01-09T13:40:19.923Z,99068.67
2023-01-09T13:43:02.875Z,99065.59
2023-01-09T13:45:33.417Z,99060.39
2023-01-09T13:48:10.025Z,99060.18
2023-01-09T13:50:40.982Z,99058.42
2023-01-09T13:53:19.740Z,99062.38
2023-01-09T13:55:59.288Z,99061.52
2023-01-09T13:58:38.333Z,99067.30
2023-01-09T14:01:24.766Z,99070.70
2023-01-09T14:04:23.438Z,99071.27
2023-01-09T14:07:22.563Z,99073.64
2023-01-09T14:10:32.739Z,99072.20
2023-01-09T14:12:59.567Z,99087.81
2023-01-09T14:15:41.327Z,99096.59
2023-01-09T14:18:22.874Z,99100.70
2023-01-09T14:20:59.045Z,99109.41
2023-01-09T14:23:51.695Z,99109.70
2023-01-09T14:26:42.591Z,99117.92
2023-01-09T14:29:33.950Z,99126.51
2023-01-09T14:32:22.721Z,99132.80
2023-01-09T14:34:57.393Z,99137.36
2023-01-09T14:37:25.361Z,99145.34
2023-01-09T14:39:52.381Z,99142.38
2023-01-09T14:42:24.325Z,99153.95
2023-01-09T14:45:03.241Z,99147.04
2023-01-09T14:48:05.437Z,99155.12
2023-01-09T14:50:36.850Z,99152.55
2023-01-09T14:53:08.091Z,99161.45
2023-01-09T14:55:57.725Z,99166.16
2023-01-09T14:58:34.465Z,99177.46
2023-01-09T15:01:05.975Z,99182.30
2023-01-09T15:03:40.441Z,99194.87
2023-01-09T15:06:15.080Z,99191.20
2023-01-09T15:08:46.087Z,99197.02
2023-01-09T15:11:13.953Z,99202.44
2023-01-09T15:13:49.860Z,99196.61
2023-01-09T15:16:22.202Z,99204.40
2023-01-09T15:18:52.692Z,99210.09
2023-01-09T15:21:23.632Z,99214.43
2023-01-09T15:23:51.027Z,99217.60
2023-01-09T15:26:27.001Z,99219.17
2023-01-09T15:29:01.691Z,99225.09
2023-01-09T15:31:29.107Z,99226.46
2023-01-09T15:33:56.590Z,99228.12
2023-01-09T15:36:26.282Z,99231.23
2023-01-09T15:38:54.046Z,99235.25
2023-01-09T15:41:44.831Z,99242.44
2023-01-09T15:44:42.519Z,99240.92
2023-01-09T15:47:15.519Z,99245.52
2023-01-09T15:49:43.011Z,99251.25
2023-01-09T15:52:15.226Z,99255.96
2023-01-09T15:54:45.811Z,99263.73
2023-01-09T15:57:53.650Z,99271.86
2023-01-09T16:00:41.786Z,99270.66
2023-01-09T16:03:19.018Z,99279.43
2023-01-09T16:05:58.788Z,99282.65
2023-01-09T16:08:32.154Z,99302.70
2023-01-09T16:11:03.496Z,99309.23
2023-01-09T16:13:35.885Z,99319.39
2023-01-09T16:16:23.523Z,99318.55
2023-01-09T16:19:00.741Z,99319.34
2023-01-09T16:21:44.040Z,99324.14
2023-01-09T16:24:17.052Z,99327.40
2023-01-09T16:26:53.204Z,99329.60
2023-01-09T16:29:38.344Z,99335.48
2023-01-09T16:32:09.115Z,99340.46
2023-01-09T16:34:36.359Z,99332.44
2023-01-09T16:37:11.428Z,99335.96
2023-01-09T16:39:38.757Z,99337.33
2023-01-09T16:42:28.179Z,99343.13
2023-01-09T16:44:57.721Z,99343.27
2023-01-09T16:47:24.748Z,99341.63
2023-01-09T16:49:59.867Z,99349.59
2023-01-09T16:52:29.492Z,99356.56
2023-01-09T16:54:56.638Z,99360.14
2023-01-09T16:57:24.398Z,99368.80
2023-01-09T16:59:56.485Z,99372.59
2023-01-09T17:02:23.487Z,99369.55
2023-01-09T17:04:56.331Z,99374.05
2023-01-09T17:07:34.647Z,99375.33
2023-01-09T17:10:02.340Z,99385.70
2023-01-09T17:12:32.034Z,99392.00
2023-01-09T17:15:02.578Z,99403.06
2023-01-09T17:17:42.105Z,99405.39
2023-01-09T17:20:20.123Z,99413.62
2023-01-09T17:22:47.223Z,99418.40
2023-01-09T17:25:34.438Z,99421.23
2023-01-09T17:28:34.409Z,99430.23
2023-01-09T17:31:03.598Z,99433.63
2023-01-09T17:33:30.583Z,99440.86
2023-01-09T17:35:57.241Z,99440.91
2023-01-09T17:38:24.578Z,99442.66
2023-01-09T17:40:52.407Z,99446.03
2023-01-09T17:43:19.252Z,99450.34
2023-01-09T17:45:46.362Z,99451.65
2023-01-09T17:48:18.407Z,99468.83
2023-01-09T17:50:46.473Z,99471.67
2023-01-09T17:53:13.257Z,99479.27
2023-01-09T17:55:41.396Z,99488.20
2023-01-09T17:58:18.201Z,99486.15
2023-01-09T18:00:46.731Z,99487.14
2023-01-09T18:03:13.469Z,99485.65
2023-01-09T18:05:40.295Z,99495.39
2023-01-09T18:08:09.797Z,99493.87
2023-01-09T18:10:37.665Z,99502.68
2023-01-09T18:13:05.225Z,99511.40
2023-01-09T18:15:32.659Z,99515.30
2023-01-09T18:17:59.714Z,99520.54
2023-01-09T18:20:26.938Z,99526.98
2023-01-09T18:22:53.824Z,99528.66
2023-01-09T18:25:20.665Z,99530.83
2023-01-09T18:27:47.525Z,99536.77
2023-01-09T18:30:14.949Z,99538.19
2023-01-09T18:32:42.314Z,99544.71
2023-01-09T18:35:09.632Z,99553.13
2023-01-09T18:37:37.284Z,99556.36
2023-01-09T18:40:04.779Z,99561.09
2023-01-09T18:42:31.671Z,99567.37
2023-01-09T18:44:59.169Z,99568.09
2023-01-09T18:47:34.677Z,99573.54
2023-01-09T18:50:02.260Z,99574.40
2023-01-09T18:52:29.177Z,99581.56
2023-01-09T18:54:55.954Z,99581.27
2023-01-09T18:57:23.543Z,99580.29
2023-01-09T18:59:50.432Z,99587.38
2023-01-09T19:02:25.909Z,99597.19
2023-01-09T19:04:53.016Z,99603.77
2023-01-09T19:07:20.047Z,99602.23
2023-01-09T19:09:47.152Z,99607.66
2023-01-09T19:12:14.090Z,99617.27
2023-01-09T19:14:41.215Z,99624.10
2023-01-09T19:17:08.021Z,99627.90
2023-01-09T19:19:34.973Z,99633.05
2023-01-09T19:22:01.835Z,99640.10
2023-01-09T19:24:30.378Z,99647.44
2023-01-09T19:26:57.259Z,99652.71
2023-01-09T19:29:24.266Z,99656.84
2023-01-09T19:31:53.205Z,99657.75
2023-01-09T19:34:20.206Z,99654.95
2023-01-09T19:36:47.871Z,99656.46
2023-01-09T19:39:14.922Z,99654.98
2023-01-09T19:41:42.092Z,99662.17
2023-01-09T19:44:09.342Z,99670.36
2023-01-09T19:46:36.617Z,99666.54
2023-01-09T19:49:07.128Z,99673.90
2023-01-09T19:51:34.467Z,99683.28
2023-01-09T19:56:29.702Z,99691.17
2023-01-09T19:59:02.135Z,99693.98
2023-01-09T20:01:31.434Z,99703.77
2023-01-09T20:04:02.711Z,99705.08
2023-01-09T20:06:30.561Z,99709.34
2023-01-09T20:08:59.956Z,99712.76
2023-01-09T20:11:28.920Z,99716.61
2023-01-09T20:13:56.016Z,99723.56
2023-01-09T20:16:30.101Z,99729.27
2023-01-09T20:19:03.556Z,99734.64
2023-01-09T20:21:31.140Z,99739.55
2023-01-09T20:24:00.708Z,99738.10
2023-01-09T20:26:28.684Z,99738.75
2023-01-09T20:28:56.082Z,99746.74
2023-01-09T20:31:24.907Z,99749.91
2023-01-09T20:33:51.579Z,99755.71
2023-01-09T20:36:21.598Z,99761.97
2023-01-09T20:38:48.237Z,99763.81
2023-01-09T20:41:23.116Z,99769.95
2023-01-09T20:43:50.589Z,99770.85
2023-01-09T20:46:18.030Z,99775.19
2023-01-09T20:48:44.853Z,99781.33
2023-01-09T20:51:14.585Z,99790.26
2023-01-09T20:53:55.638Z,99800.23
2023-01-09T20:56:26.415Z,99796.83
2023-01-09T20:58:53.408Z,99802.77
2023-01-09T21:01:22.681Z,99806.02
2023-01-09T21:03:50.922Z,99814.09
2023-01-09T21:06:19.324Z,99819.45
2023-01-09T21:08:47.187Z,99823.59
2023-01-09T21:11:14.991Z,99825.15
2023-01-09T21:13:41.973Z,99824.21
2023-01-09T21:16:11.571Z,99830.10
2023-01-09T21:18:49.193Z,99832.42
2023-01-09T21:21:21.588Z,99839.45
2023-01-09T21:23:53.651Z,99842.31
2023-01-09T21:26:27.600Z,99843.96
2023-01-09T21:28:58.427Z,99848.63
2023-01-09T21:31:33.271Z,99853.17
2023-01-09T21:34:07.188Z,99854.38
2023-01-09T21:36:37.297Z,99856.02
2023-01-09T21:39:08.506Z,99857.35
2023-01-09T21:41:57.090Z,99863.83
2023-01-09T21:44:44.983Z,99866.77
2023-01-09T21:47:12.660Z,99873.36
2023-01-09T21:49:44.250Z,99879.92
2023-01-09T21:52:13.212Z,99887.05
2023-01-09T21:54:40.619Z,99884.98
2023-01-09T21:57:10.677Z,99888.63
2023-01-09T21:59:38.065Z,99890.70
2023-01-09T22:02:04.644Z,99897.17
2023-01-09T22:04:32.434Z,99897.45
2023-01-09T22:07:01.826Z,99906.17
2023-01-09T22:09:28.742Z,99909.90
2023-01-09T22:11:59.512Z,99920.13
2023-01-09T22:14:27.191Z,99917.86
2023-01-09T22:16:56.683Z,99925.08
2023-01-09T22:19:24.013Z,99928.32
2023-01-09T22:21:54.110Z,99944.65
2023-01-09T22:24:21.789Z,99951.44
2023-01-09T22:26:48.652Z,99951.23
2023-01-09T22:29:16.461Z,99956.56
2023-01-09T22:31:43.501Z,99958.17
2023-01-09T22:34:13.901Z,99965.80
2023-01-09T22:36:41.118Z,99969.75
2023-01-09T22:39:08.213Z,99978.52
2023-01-09T22:41:35.169Z,99986.83
2023-01-09T22:44:16.118Z,99985.80
2023-01-09T22:47:05.312Z,99986.87
2023-01-09T22:49:51.787Z,99993.41
2023-01-09T22:52:22.090Z,99999.61
2023-01-09T22:54:49.197Z,99997.00
2023-01-09T22:57:16.145Z,99999.27
2023-01-09T22:59:43.232Z,100002.95
2023-01-09T23:02:10.489Z,100007.02
2023-01-09T23:04:37.886Z,100011.76
2023-01-09T23:07:04.875Z,100016.80
2023-01-09T23:09:32.102Z,100022.21
2023-01-09T23:12:01.973Z,100021.79
2023-01-09T23:14:37.517Z,100020.35
2023-01-09T23:17:06.054Z,100031.67
2023-01-09T23:19:33.649Z,100037.67
2023-01-09T23:22:01.159Z,100045.33
2023-01-09T23:24:29.073Z,100049.55
2023-01-09T23:26:57.056Z,100052.13
2023-01-09T23:29:25.461Z,100057.13
2023-01-09T23:31:53.777Z,100058.02
2023-01-09T23:34:27.172Z,100065.84
2023-01-09T23:36:57.225Z,100070.17
2023-01-09T23:39:24.070Z,100074.63
2023-01-09T23:42:09.756Z,100079.96
2023-01-09T23:44:36.404Z,100084.60
2023-01-09T23:47:03.610Z,100088.77
2023-01-09T23:49:30.645Z,100090.11
2023-01-09T23:51:58.043Z,100090.58
2023-01-09T23:54:24.757Z,100096.70
2023-01-09T23:56:53.370Z,100099.54
2023-01-09T23:59:20.417Z,100099.90
